Terminal Aerodrome Forecast
Issued by NWS

Home | Current Version | Previous Version | Text Only | Print | Product List | Glossary On
Versions: 1 2 3 4 5 6 7 8 9 10 11 12 13 14
304
FTUS42 KTBW 200525
TAFRSW
TAF
KRSW 200525Z 2006/2106 VRB03KT P6SM SKC
     FM200800 VRB03KT 6SM BR SKC
      TEMPO 2008/2012 4SM BR
     FM201300 04007KT P6SM FEW030 SCT250
     FM201800 29008KT P6SM SCT040 SCT250
     FM210100 29007KT P6SM SCT040 SCT250
     FM210500 06006KT P6SM SCT030 SCT250=

USA.gov is the U.S. government's official web portal to all federal, state and local government web resources and services.